sensor_id;sensor_type;location;lat;lon;timestamp;temperature;humidity
5246;DHT22;54412;51.206;6.888;2023-03-13T00:01:25;10.50;99.90
5246;DHT22;54412;51.206;6.888;2023-03-13T00:03:52;10.40;99.90
5246;DHT22;54412;51.206;6.888;2023-03-13T00:06:20;10.40;99.90
5246;DHT22;54412;51.206;6.888;2023-03-13T00:08:48;10.40;99.90
5246;DHT22;54412;51.206;6.888;2023-03-13T00:11:14;10.40;99.90
5246;DHT22;54412;51.206;6.888;2023-03-13T00:13:41;10.40;99.90
5246;DHT22;54412;51.206;6.888;2023-03-13T00:16:10;10.40;99.90
5246;DHT22;54412;51.206;6.888;2023-03-13T00:18:38;10.40;99.90
5246;DHT22;54412;51.206;6.888;2023-03-13T00:21:08;10.40;99.90
5246;DHT22;54412;51.206;6.888;2023-03-13T00:23:35;10.40;99.90
5246;DHT22;54412;51.206;6.888;2023-03-13T00:26:07;10.40;99.90
5246;DHT22;54412;51.206;6.888;2023-03-13T00:28:36;10.40;99.90
5246;DHT22;54412;51.206;6.888;2023-03-13T00:33:56;10.50;99.90
5246;DHT22;54412;51.206;6.888;2023-03-13T00:36:29;10.50;99.90
5246;DHT22;54412;51.206;6.888;2023-03-13T00:38:57;10.50;99.90
5246;DHT22;54412;51.206;6.888;2023-03-13T00:41:28;10.50;99.90
5246;DHT22;54412;51.206;6.888;2023-03-13T00:43:56;10.50;99.90
5246;DHT22;54412;51.206;6.888;2023-03-13T00:46:24;10.60;99.90
5246;DHT22;54412;51.206;6.888;2023-03-13T00:48:52;10.60;99.90
5246;DHT22;54412;51.206;6.888;2023-03-13T00:51:19;10.60;99.90
5246;DHT22;54412;51.206;6.888;2023-03-13T00:53:46;10.60;99.90
5246;DHT22;54412;51.206;6.888;2023-03-13T00:56:14;10.70;99.90
5246;DHT22;54412;51.206;6.888;2023-03-13T00:58:43;10.70;99.90
5246;DHT22;54412;51.206;6.888;2023-03-13T01:01:21;10.60;99.90
5246;DHT22;54412;51.206;6.888;2023-03-13T01:03:57;10.60;99.90
5246;DHT22;54412;51.206;6.888;2023-03-13T01:06:27;10.60;99.90
5246;DHT22;54412;51.206;6.888;2023-03-13T01:08:53;10.60;99.90
5246;DHT22;54412;51.206;6.888;2023-03-13T01:11:25;10.50;99.90
5246;DHT22;54412;51.206;6.888;2023-03-13T01:13:57;10.50;99.90
5246;DHT22;54412;51.206;6.888;2023-03-13T01:16:25;10.50;99.90
5246;DHT22;54412;51.206;6.888;2023-03-13T01:18:53;10.50;99.90
5246;DHT22;54412;51.206;6.888;2023-03-13T01:21:21;10.50;99.90
5246;DHT22;54412;51.206;6.888;2023-03-13T01:23:49;10.50;99.90
5246;DHT22;54412;51.206;6.888;2023-03-13T01:26:16;10.50;99.90
5246;DHT22;54412;51.206;6.888;2023-03-13T01:28:42;10.50;99.90
5246;DHT22;54412;51.206;6.888;2023-03-13T01:31:17;10.50;99.90
5246;DHT22;54412;51.206;6.888;2023-03-13T01:33:45;10.50;99.90
5246;DHT22;54412;51.206;6.888;2023-03-13T01:36:13;10.50;99.90
5246;DHT22;54412;51.206;6.888;2023-03-13T01:38:39;10.60;99.90
5246;DHT22;54412;51.206;6.888;2023-03-13T01:41:06;10.60;99.90
5246;DHT22;54412;51.206;6.888;2023-03-13T01:43:34;10.60;99.90
5246;DHT22;54412;51.206;6.888;2023-03-13T01:51:23;10.70;99.90
5246;DHT22;54412;51.206;6.888;2023-03-13T01:56:39;10.70;99.90
5246;DHT22;54412;51.206;6.888;2023-03-13T01:59:13;10.70;99.90
5246;DHT22;54412;51.206;6.888;2023-03-13T02:01:45;10.70;99.90
5246;DHT22;54412;51.206;6.888;2023-03-13T02:04:13;10.60;99.90
5246;DHT22;54412;51.206;6.888;2023-03-13T02:06:42;10.60;99.90
5246;DHT22;54412;51.206;6.888;2023-03-13T02:09:16;10.60;99.90
5246;DHT22;54412;51.206;6.888;2023-03-13T02:11:52;10.60;99.90
5246;DHT22;54412;51.206;6.888;2023-03-13T02:14:27;10.60;99.90
5246;DHT22;54412;51.206;6.888;2023-03-13T02:16:55;10.60;99.90
5246;DHT22;54412;51.206;6.888;2023-03-13T02:28:29;10.70;99.90
5246;DHT22;54412;51.206;6.888;2023-03-13T02:30:58;10.80;99.90
5246;DHT22;54412;51.206;6.888;2023-03-13T02:33:28;10.80;99.90
5246;DHT22;54412;51.206;6.888;2023-03-13T02:35:57;10.70;99.90
5246;DHT22;54412;51.206;6.888;2023-03-13T02:38:28;10.70;99.90
5246;DHT22;54412;51.206;6.888;2023-03-13T02:40:56;10.70;99.90
5246;DHT22;54412;51.206;6.888;2023-03-13T02:43:33;10.80;99.90
5246;DHT22;54412;51.206;6.888;2023-03-13T02:48:44;10.70;99.90
5246;DHT22;54412;51.206;6.888;2023-03-13T02:51:24;10.80;99.90
5246;DHT22;54412;51.206;6.888;2023-03-13T02:53:56;10.80;99.90
5246;DHT22;54412;51.206;6.888;2023-03-13T02:56:26;10.80;99.90
5246;DHT22;54412;51.206;6.888;2023-03-13T02:58:54;10.80;99.90
5246;DHT22;54412;51.206;6.888;2023-03-13T03:01:20;10.80;99.90
5246;DHT22;54412;51.206;6.888;2023-03-13T03:03:45;10.80;99.90
5246;DHT22;54412;51.206;6.888;2023-03-13T03:06:11;10.70;99.90
5246;DHT22;54412;51.206;6.888;2023-03-13T03:08:37;10.70;99.90
5246;DHT22;54412;51.206;6.888;2023-03-13T03:11:05;10.70;99.90
5246;DHT22;54412;51.206;6.888;2023-03-13T03:13:32;10.60;99.90
5246;DHT22;54412;51.206;6.888;2023-03-13T03:15:58;10.60;99.90
5246;DHT22;54412;51.206;6.888;2023-03-13T03:18:24;10.70;99.90
5246;DHT22;54412;51.206;6.888;2023-03-13T03:20:49;10.70;99.90
5246;DHT22;54412;51.206;6.888;2023-03-13T03:23:15;10.70;99.90
5246;DHT22;54412;51.206;6.888;2023-03-13T03:25:41;10.70;99.90
5246;DHT22;54412;51.206;6.888;2023-03-13T03:28:07;10.80;99.90
5246;DHT22;54412;51.206;6.888;2023-03-13T03:30:32;10.80;99.90
5246;DHT22;54412;51.206;6.888;2023-03-13T03:32:58;10.80;99.90
5246;DHT22;54412;51.206;6.888;2023-03-13T03:35:24;10.80;99.90
5246;DHT22;54412;51.206;6.888;2023-03-13T03:37:49;10.80;99.90
5246;DHT22;54412;51.206;6.888;2023-03-13T03:40:15;10.80;99.90
5246;DHT22;54412;51.206;6.888;2023-03-13T03:42:41;10.80;99.90
5246;DHT22;54412;51.206;6.888;2023-03-13T03:45:07;10.80;99.90
5246;DHT22;54412;51.206;6.888;2023-03-13T03:47:33;10.90;99.90
5246;DHT22;54412;51.206;6.888;2023-03-13T03:49:58;10.90;99.90
5246;DHT22;54412;51.206;6.888;2023-03-13T03:52:24;10.90;99.90
5246;DHT22;54412;51.206;6.888;2023-03-13T03:54:50;11.00;99.90
5246;DHT22;54412;51.206;6.888;2023-03-13T03:57:15;10.90;99.90
5246;DHT22;54412;51.206;6.888;2023-03-13T03:59:41;10.90;99.90
5246;DHT22;54412;51.206;6.888;2023-03-13T04:02:07;10.90;99.90
5246;DHT22;54412;51.206;6.888;2023-03-13T04:04:32;11.00;99.90
5246;DHT22;54412;51.206;6.888;2023-03-13T04:06:58;11.00;99.90
5246;DHT22;54412;51.206;6.888;2023-03-13T04:09:24;10.90;99.90
5246;DHT22;54412;51.206;6.888;2023-03-13T04:11:49;10.90;99.90
5246;DHT22;54412;51.206;6.888;2023-03-13T04:14:15;10.90;99.90
5246;DHT22;54412;51.206;6.888;2023-03-13T04:16:40;10.90;99.90
5246;DHT22;54412;51.206;6.888;2023-03-13T04:19:06;10.90;99.90
5246;DHT22;54412;51.206;6.888;2023-03-13T04:21:32;11.00;99.90
5246;DHT22;54412;51.206;6.888;2023-03-13T04:23:58;11.00;99.90
5246;DHT22;54412;51.206;6.888;2023-03-13T04:26:24;11.10;99.90
5246;DHT22;54412;51.206;6.888;2023-03-13T04:28:49;11.10;99.90
5246;DHT22;54412;51.206;6.888;2023-03-13T04:31:15;11.10;99.90
5246;DHT22;54412;51.206;6.888;2023-03-13T04:33:41;11.10;99.90
5246;DHT22;54412;51.206;6.888;2023-03-13T04:36:06;11.10;99.90
5246;DHT22;54412;51.206;6.888;2023-03-13T04:38:32;11.20;99.90
5246;DHT22;54412;51.206;6.888;2023-03-13T04:40:58;11.20;99.90
5246;DHT22;54412;51.206;6.888;2023-03-13T04:43:24;11.20;99.90
5246;DHT22;54412;51.206;6.888;2023-03-13T04:45:51;11.20;99.90
5246;DHT22;54412;51.206;6.888;2023-03-13T04:48:20;11.20;99.90
5246;DHT22;54412;51.206;6.888;2023-03-13T04:50:46;11.30;99.90
5246;DHT22;54412;51.206;6.888;2023-03-13T04:53:13;11.30;99.90
5246;DHT22;54412;51.206;6.888;2023-03-13T04:55:39;11.30;99.90
5246;DHT22;54412;51.206;6.888;2023-03-13T04:58:05;11.40;99.90
5246;DHT22;54412;51.206;6.888;2023-03-13T05:00:31;11.40;99.90
5246;DHT22;54412;51.206;6.888;2023-03-13T05:02:56;11.40;99.90
5246;DHT22;54412;51.206;6.888;2023-03-13T05:05:22;11.50;99.90
5246;DHT22;54412;51.206;6.888;2023-03-13T05:07:47;11.60;99.90
5246;DHT22;54412;51.206;6.888;2023-03-13T05:10:13;11.60;99.90
5246;DHT22;54412;51.206;6.888;2023-03-13T05:12:39;11.70;99.90
5246;DHT22;54412;51.206;6.888;2023-03-13T05:15:05;11.70;99.90
5246;DHT22;54412;51.206;6.888;2023-03-13T05:17:31;11.70;99.90
5246;DHT22;54412;51.206;6.888;2023-03-13T05:19:57;11.70;99.90
5246;DHT22;54412;51.206;6.888;2023-03-13T05:22:22;11.80;99.90
5246;DHT22;54412;51.206;6.888;2023-03-13T05:24:48;11.80;99.90
5246;DHT22;54412;51.206;6.888;2023-03-13T05:27:14;11.90;99.90
5246;DHT22;54412;51.206;6.888;2023-03-13T05:29:39;12.00;99.90
5246;DHT22;54412;51.206;6.888;2023-03-13T05:32:06;12.10;99.90
5246;DHT22;54412;51.206;6.888;2023-03-13T05:34:32;12.20;99.90
5246;DHT22;54412;51.206;6.888;2023-03-13T05:36:57;12.30;99.90
5246;DHT22;54412;51.206;6.888;2023-03-13T05:39:23;12.40;99.90
5246;DHT22;54412;51.206;6.888;2023-03-13T05:41:49;12.40;99.90
5246;DHT22;54412;51.206;6.888;2023-03-13T05:44:14;12.40;99.90
5246;DHT22;54412;51.206;6.888;2023-03-13T05:46:40;12.50;99.90
5246;DHT22;54412;51.206;6.888;2023-03-13T05:49:06;12.40;99.90
5246;DHT22;54412;51.206;6.888;2023-03-13T05:51:32;12.50;99.90
5246;DHT22;54412;51.206;6.888;2023-03-13T05:53:58;12.60;99.90
5246;DHT22;54412;51.206;6.888;2023-03-13T05:56:23;12.60;99.90
5246;DHT22;54412;51.206;6.888;2023-03-13T05:58:49;12.70;99.90
5246;DHT22;54412;51.206;6.888;2023-03-13T06:01:14;12.60;99.90
5246;DHT22;54412;51.206;6.888;2023-03-13T06:03:40;12.80;99.90
5246;DHT22;54412;51.206;6.888;2023-03-13T06:06:06;12.80;99.90
5246;DHT22;54412;51.206;6.888;2023-03-13T06:08:32;12.80;99.90
5246;DHT22;54412;51.206;6.888;2023-03-13T06:10:59;12.80;99.90
5246;DHT22;54412;51.206;6.888;2023-03-13T06:13:26;12.80;99.90
5246;DHT22;54412;51.206;6.888;2023-03-13T06:15:56;12.80;99.90
5246;DHT22;54412;51.206;6.888;2023-03-13T06:18:23;12.80;99.90
5246;DHT22;54412;51.206;6.888;2023-03-13T06:20:55;12.70;99.90
5246;DHT22;54412;51.206;6.888;2023-03-13T06:23:23;12.80;99.90
5246;DHT22;54412;51.206;6.888;2023-03-13T06:25:49;12.80;99.90
5246;DHT22;54412;51.206;6.888;2023-03-13T06:28:15;12.90;99.90
5246;DHT22;54412;51.206;6.888;2023-03-13T06:30:41;12.90;99.90
5246;DHT22;54412;51.206;6.888;2023-03-13T06:33:07;12.90;99.90
5246;DHT22;54412;51.206;6.888;2023-03-13T06:35:33;12.90;99.90
5246;DHT22;54412;51.206;6.888;2023-03-13T06:37:58;12.90;99.90
5246;DHT22;54412;51.206;6.888;2023-03-13T06:40:24;12.90;99.90
5246;DHT22;54412;51.206;6.888;2023-03-13T06:42:50;12.90;99.90
5246;DHT22;54412;51.206;6.888;2023-03-13T06:45:16;13.00;99.90
5246;DHT22;54412;51.206;6.888;2023-03-13T06:47:41;13.10;99.90
5246;DHT22;54412;51.206;6.888;2023-03-13T06:50:08;13.00;99.90
5246;DHT22;54412;51.206;6.888;2023-03-13T06:52:34;13.00;99.90
5246;DHT22;54412;51.206;6.888;2023-03-13T06:54:59;13.00;99.90
5246;DHT22;54412;51.206;6.888;2023-03-13T06:57:25;13.10;99.90
5246;DHT22;54412;51.206;6.888;2023-03-13T06:59:51;13.20;99.90
5246;DHT22;54412;51.206;6.888;2023-03-13T07:02:17;13.10;99.90
5246;DHT22;54412;51.206;6.888;2023-03-13T07:04:43;13.20;99.90
5246;DHT22;54412;51.206;6.888;2023-03-13T07:07:10;13.30;99.90
5246;DHT22;54412;51.206;6.888;2023-03-13T07:09:35;13.40;99.90
5246;DHT22;54412;51.206;6.888;2023-03-13T07:12:01;13.40;99.90
5246;DHT22;54412;51.206;6.888;2023-03-13T07:14:27;13.30;99.90
5246;DHT22;54412;51.206;6.888;2023-03-13T07:16:53;13.30;99.90
5246;DHT22;54412;51.206;6.888;2023-03-13T07:19:19;13.30;99.90
5246;DHT22;54412;51.206;6.888;2023-03-13T07:21:44;13.40;99.90
5246;DHT22;54412;51.206;6.888;2023-03-13T07:24:11;13.30;99.90
5246;DHT22;54412;51.206;6.888;2023-03-13T07:26:37;13.40;99.90
5246;DHT22;54412;51.206;6.888;2023-03-13T07:29:03;13.40;99.90
5246;DHT22;54412;51.206;6.888;2023-03-13T07:31:29;13.30;99.90
5246;DHT22;54412;51.206;6.888;2023-03-13T07:33:58;13.30;99.90
5246;DHT22;54412;51.206;6.888;2023-03-13T07:36:24;13.40;99.90
5246;DHT22;54412;51.206;6.888;2023-03-13T07:38:51;13.50;99.90
5246;DHT22;54412;51.206;6.888;2023-03-13T07:41:18;13.50;99.90
5246;DHT22;54412;51.206;6.888;2023-03-13T07:43:45;13.50;99.90
5246;DHT22;54412;51.206;6.888;2023-03-13T07:46:13;13.60;99.90
5246;DHT22;54412;51.206;6.888;2023-03-13T07:48:42;13.60;99.90
5246;DHT22;54412;51.206;6.888;2023-03-13T07:51:17;13.60;99.90
5246;DHT22;54412;51.206;6.888;2023-03-13T07:53:45;13.50;99.90
5246;DHT22;54412;51.206;6.888;2023-03-13T07:56:13;13.50;99.90
5246;DHT22;54412;51.206;6.888;2023-03-13T07:58:42;13.60;99.90
5246;DHT22;54412;51.206;6.888;2023-03-13T08:03:39;13.60;99.90
5246;DHT22;54412;51.206;6.888;2023-03-13T08:06:10;13.70;99.90
5246;DHT22;54412;51.206;6.888;2023-03-13T08:08:38;13.70;99.90
5246;DHT22;54412;51.206;6.888;2023-03-13T08:11:06;13.60;99.90
5246;DHT22;54412;51.206;6.888;2023-03-13T08:13:33;13.60;99.90
5246;DHT22;54412;51.206;6.888;2023-03-13T08:16:04;13.60;99.90
5246;DHT22;54412;51.206;6.888;2023-03-13T08:18:35;13.60;99.90
5246;DHT22;54412;51.206;6.888;2023-03-13T08:21:07;13.60;99.90
5246;DHT22;54412;51.206;6.888;2023-03-13T08:23:37;13.60;99.90
5246;DHT22;54412;51.206;6.888;2023-03-13T08:26:27;13.60;99.90
5246;DHT22;54412;51.206;6.888;2023-03-13T08:28:57;13.60;99.90
5246;DHT22;54412;51.206;6.888;2023-03-13T08:31:29;13.60;99.90
5246;DHT22;54412;51.206;6.888;2023-03-13T08:33:56;13.70;99.90
5246;DHT22;54412;51.206;6.888;2023-03-13T08:36:25;13.70;99.90
5246;DHT22;54412;51.206;6.888;2023-03-13T08:38:58;13.70;99.90
5246;DHT22;54412;51.206;6.888;2023-03-13T08:41:28;13.70;99.90
5246;DHT22;54412;51.206;6.888;2023-03-13T08:43:56;13.80;99.90
5246;DHT22;54412;51.206;6.888;2023-03-13T08:46:23;13.80;99.90
5246;DHT22;54412;51.206;6.888;2023-03-13T08:48:53;13.90;99.90
5246;DHT22;54412;51.206;6.888;2023-03-13T08:51:22;13.90;99.90
5246;DHT22;54412;51.206;6.888;2023-03-13T08:53:50;13.90;99.90
5246;DHT22;54412;51.206;6.888;2023-03-13T08:56:19;13.80;99.90
5246;DHT22;54412;51.206;6.888;2023-03-13T08:58:54;13.80;99.90
5246;DHT22;54412;51.206;6.888;2023-03-13T09:01:23;13.90;99.90
5246;DHT22;54412;51.206;6.888;2023-03-13T09:03:50;13.90;99.90
5246;DHT22;54412;51.206;6.888;2023-03-13T09:06:17;13.90;99.90
5246;DHT22;54412;51.206;6.888;2023-03-13T09:08:43;14.00;99.90
5246;DHT22;54412;51.206;6.888;2023-03-13T09:11:11;13.90;99.90
5246;DHT22;54412;51.206;6.888;2023-03-13T09:13:44;13.90;99.90
5246;DHT22;54412;51.206;6.888;2023-03-13T09:16:14;13.80;99.90
5246;DHT22;54412;51.206;6.888;2023-03-13T09:18:47;13.90;99.90
5246;DHT22;54412;51.206;6.888;2023-03-13T09:21:19;14.00;99.90
5246;DHT22;54412;51.206;6.888;2023-03-13T09:23:47;13.80;99.90
5246;DHT22;54412;51.206;6.888;2023-03-13T09:26:14;13.90;99.90
5246;DHT22;54412;51.206;6.888;2023-03-13T09:28:42;13.90;99.90
5246;DHT22;54412;51.206;6.888;2023-03-13T09:31:16;13.90;99.90
5246;DHT22;54412;51.206;6.888;2023-03-13T09:33:45;14.00;99.90
5246;DHT22;54412;51.206;6.888;2023-03-13T09:36:11;14.00;99.90
5246;DHT22;54412;51.206;6.888;2023-03-13T09:38:38;14.00;99.90
5246;DHT22;54412;51.206;6.888;2023-03-13T09:49:22;14.10;99.90
5246;DHT22;54412;51.206;6.888;2023-03-13T09:51:57;14.10;99.90
5246;DHT22;54412;51.206;6.888;2023-03-13T09:54:35;14.10;99.90
5246;DHT22;54412;51.206;6.888;2023-03-13T09:57:22;14.10;99.90
5246;DHT22;54412;51.206;6.888;2023-03-13T10:05:25;14.20;99.90
5246;DHT22;54412;51.206;6.888;2023-03-13T10:08:16;14.30;99.90
5246;DHT22;54412;51.206;6.888;2023-03-13T10:11:08;14.40;99.90
5246;DHT22;54412;51.206;6.888;2023-03-13T10:14:02;14.50;99.90
5246;DHT22;54412;51.206;6.888;2023-03-13T10:19:37;14.60;99.90
5246;DHT22;54412;51.206;6.888;2023-03-13T10:22:14;14.70;99.90
5246;DHT22;54412;51.206;6.888;2023-03-13T10:24:57;14.80;99.90
5246;DHT22;54412;51.206;6.888;2023-03-13T10:27:25;14.70;99.90
5246;DHT22;54412;51.206;6.888;2023-03-13T10:29:51;14.80;99.90
5246;DHT22;54412;51.206;6.888;2023-03-13T10:32:17;14.80;99.90
5246;DHT22;54412;51.206;6.888;2023-03-13T10:34:59;14.80;99.90
5246;DHT22;54412;51.206;6.888;2023-03-13T10:37:46;14.80;99.90
5246;DHT22;54412;51.206;6.888;2023-03-13T10:40:26;14.80;99.90
5246;DHT22;54412;51.206;6.888;2023-03-13T10:43:02;14.80;99.90
5246;DHT22;54412;51.206;6.888;2023-03-13T10:45:36;14.80;99.90
5246;DHT22;54412;51.206;6.888;2023-03-13T10:48:23;14.90;99.90
5246;DHT22;54412;51.206;6.888;2023-03-13T10:50:53;14.90;99.90
5246;DHT22;54412;51.206;6.888;2023-03-13T10:55:54;15.00;99.90
5246;DHT22;54412;51.206;6.888;2023-03-13T10:58:36;15.00;99.90
5246;DHT22;54412;51.206;6.888;2023-03-13T11:03:43;15.10;99.90
5246;DHT22;54412;51.206;6.888;2023-03-13T11:06:32;15.10;99.90
5246;DHT22;54412;51.206;6.888;2023-03-13T11:09:12;15.20;99.90
5246;DHT22;54412;51.206;6.888;2023-03-13T11:11:52;15.20;99.90
5246;DHT22;54412;51.206;6.888;2023-03-13T11:14:24;15.20;99.90
5246;DHT22;54412;51.206;6.888;2023-03-13T11:16:54;15.30;99.90
5246;DHT22;54412;51.206;6.888;2023-03-13T11:19:52;15.30;99.90
5246;DHT22;54412;51.206;6.888;2023-03-13T11:25:21;15.30;99.90
5246;DHT22;54412;51.206;6.888;2023-03-13T11:28:19;15.30;99.90
5246;DHT22;54412;51.206;6.888;2023-03-13T11:33:37;15.30;99.90
5246;DHT22;54412;51.206;6.888;2023-03-13T11:45:25;15.60;99.90
5246;DHT22;54412;51.206;6.888;2023-03-13T11:50:53;15.60;99.90
5246;DHT22;54412;51.206;6.888;2023-03-13T11:54:05;16.00;99.90
5246;DHT22;54412;51.206;6.888;2023-03-13T11:57:12;16.60;99.90
5246;DHT22;54412;51.206;6.888;2023-03-13T12:02:35;16.80;99.90
5246;DHT22;54412;51.206;6.888;2023-03-13T12:05:44;16.50;99.90
5246;DHT22;54412;51.206;6.888;2023-03-13T12:08:22;16.30;99.90
5246;DHT22;54412;51.206;6.888;2023-03-13T12:11:21;16.70;99.90
5246;DHT22;54412;51.206;6.888;2023-03-13T12:14:12;17.10;99.90
5246;DHT22;54412;51.206;6.888;2023-03-13T12:16:50;17.00;99.90
5246;DHT22;54412;51.206;6.888;2023-03-13T12:19:26;16.80;99.90
5246;DHT22;54412;51.206;6.888;2023-03-13T12:22:14;16.70;99.90
5246;DHT22;54412;51.206;6.888;2023-03-13T12:24:59;16.60;99.90
5246;DHT22;54412;51.206;6.888;2023-03-13T12:27:33;16.50;99.90
5246;DHT22;54412;51.206;6.888;2023-03-13T12:33:20;16.40;99.90
5246;DHT22;54412;51.206;6.888;2023-03-13T12:36:06;16.70;99.90
5246;DHT22;54412;51.206;6.888;2023-03-13T12:38:43;16.60;99.90
5246;DHT22;54412;51.206;6.888;2023-03-13T12:44:22;16.40;99.90
5246;DHT22;54412;51.206;6.888;2023-03-13T12:50:16;16.30;99.90
5246;DHT22;54412;51.206;6.888;2023-03-13T12:55:57;16.80;99.90
5246;DHT22;54412;51.206;6.888;2023-03-13T12:58:44;16.80;99.90
5246;DHT22;54412;51.206;6.888;2023-03-13T13:01:40;16.60;99.90
5246;DHT22;54412;51.206;6.888;2023-03-13T13:04:17;16.80;99.90
5246;DHT22;54412;51.206;6.888;2023-03-13T13:09:24;16.60;99.90
5246;DHT22;54412;51.206;6.888;2023-03-13T13:11:54;16.60;99.90
5246;DHT22;54412;51.206;6.888;2023-03-13T13:16:59;16.60;99.90
5246;DHT22;54412;51.206;6.888;2023-03-13T13:25:34;16.50;99.90
5246;DHT22;54412;51.206;6.888;2023-03-13T13:30:46;16.40;99.90
5246;DHT22;54412;51.206;6.888;2023-03-13T13:38:43;16.80;99.90
5246;DHT22;54412;51.206;6.888;2023-03-13T13:43:36;16.70;99.90
5246;DHT22;54412;51.206;6.888;2023-03-13T13:46:26;17.00;99.90
5246;DHT22;54412;51.206;6.888;2023-03-13T13:51:36;16.90;99.90
5246;DHT22;54412;51.206;6.888;2023-03-13T13:56:47;16.70;99.90
5246;DHT22;54412;51.206;6.888;2023-03-13T14:01:46;16.50;99.90
5246;DHT22;54412;51.206;6.888;2023-03-13T14:04:27;16.50;99.90
5246;DHT22;54412;51.206;6.888;2023-03-13T14:07:01;16.40;99.90
5246;DHT22;54412;51.206;6.888;2023-03-13T14:09:35;16.40;99.90
5246;DHT22;54412;51.206;6.888;2023-03-13T14:12:31;16.40;99.90
5246;DHT22;54412;51.206;6.888;2023-03-13T14:17:50;16.50;99.90
5246;DHT22;54412;51.206;6.888;2023-03-13T14:23:32;16.60;99.90
5246;DHT22;54412;51.206;6.888;2023-03-13T14:26:26;16.50;99.90
5246;DHT22;54412;51.206;6.888;2023-03-13T14:28:55;16.50;99.90
5246;DHT22;54412;51.206;6.888;2023-03-13T14:33:51;16.40;99.90
5246;DHT22;54412;51.206;6.888;2023-03-13T14:36:17;16.50;99.90
5246;DHT22;54412;51.206;6.888;2023-03-13T14:38:57;16.50;99.90
5246;DHT22;54412;51.206;6.888;2023-03-13T14:41:30;16.40;99.90
5246;DHT22;54412;51.206;6.888;2023-03-13T14:44:03;16.30;99.90
5246;DHT22;54412;51.206;6.888;2023-03-13T14:46:57;16.30;99.90
5246;DHT22;54412;51.206;6.888;2023-03-13T14:49:26;16.20;99.90
5246;DHT22;54412;51.206;6.888;2023-03-13T14:52:12;16.20;99.90
5246;DHT22;54412;51.206;6.888;2023-03-13T14:54:58;16.20;99.90
5246;DHT22;54412;51.206;6.888;2023-03-13T14:57:30;16.20;99.90
5246;DHT22;54412;51.206;6.888;2023-03-13T15:00:32;16.20;99.90
5246;DHT22;54412;51.206;6.888;2023-03-13T15:08:38;16.10;99.90
5246;DHT22;54412;51.206;6.888;2023-03-13T15:11:30;16.10;99.90
5246;DHT22;54412;51.206;6.888;2023-03-13T15:13:58;16.00;99.90
5246;DHT22;54412;51.206;6.888;2023-03-13T15:16:25;16.00;99.90
5246;DHT22;54412;51.206;6.888;2023-03-13T15:18:53;16.00;99.90
5246;DHT22;54412;51.206;6.888;2023-03-13T15:21:26;16.00;99.90
5246;DHT22;54412;51.206;6.888;2023-03-13T15:24:14;15.90;99.90
5246;DHT22;54412;51.206;6.888;2023-03-13T15:26:40;15.90;99.90
5246;DHT22;54412;51.206;6.888;2023-03-13T15:29:06;15.80;99.90
5246;DHT22;54412;51.206;6.888;2023-03-13T15:31:32;15.80;99.90
5246;DHT22;54412;51.206;6.888;2023-03-13T15:34:00;15.90;99.90
5246;DHT22;54412;51.206;6.888;2023-03-13T15:36:28;15.90;99.90
5246;DHT22;54412;51.206;6.888;2023-03-13T15:38:56;15.90;99.90
5246;DHT22;54412;51.206;6.888;2023-03-13T15:41:22;15.90;99.90
5246;DHT22;54412;51.206;6.888;2023-03-13T15:43:49;15.80;99.90
5246;DHT22;54412;51.206;6.888;2023-03-13T15:46:19;15.80;99.90
5246;DHT22;54412;51.206;6.888;2023-03-13T15:48:46;15.80;99.90
5246;DHT22;54412;51.206;6.888;2023-03-13T15:51:14;15.80;99.90
5246;DHT22;54412;51.206;6.888;2023-03-13T15:53:41;15.80;99.90
5246;DHT22;54412;51.206;6.888;2023-03-13T15:56:17;15.80;99.90
5246;DHT22;54412;51.206;6.888;2023-03-13T15:58:45;15.90;99.90
5246;DHT22;54412;51.206;6.888;2023-03-13T16:01:13;15.90;99.90
5246;DHT22;54412;51.206;6.888;2023-03-13T16:03:40;15.90;99.90
5246;DHT22;54412;51.206;6.888;2023-03-13T16:06:18;15.90;99.90
5246;DHT22;54412;51.206;6.888;2023-03-13T16:08:52;15.90;99.90
5246;DHT22;54412;51.206;6.888;2023-03-13T16:11:18;15.90;99.90
5246;DHT22;54412;51.206;6.888;2023-03-13T16:13:44;15.80;99.90
5246;DHT22;54412;51.206;6.888;2023-03-13T16:16:24;15.80;99.90
5246;DHT22;54412;51.206;6.888;2023-03-13T16:18:55;15.70;99.90
5246;DHT22;54412;51.206;6.888;2023-03-13T16:21:27;15.80;99.90
5246;DHT22;54412;51.206;6.888;2023-03-13T16:23:55;15.70;99.90
5246;DHT22;54412;51.206;6.888;2023-03-13T16:26:24;15.70;99.90
5246;DHT22;54412;51.206;6.888;2023-03-13T16:28:52;15.70;99.90
5246;DHT22;54412;51.206;6.888;2023-03-13T16:31:28;15.70;99.90
5246;DHT22;54412;51.206;6.888;2023-03-13T16:33:56;15.60;99.90
5246;DHT22;54412;51.206;6.888;2023-03-13T16:36:26;15.50;99.90
5246;DHT22;54412;51.206;6.888;2023-03-13T16:38:54;15.50;99.90
5246;DHT22;54412;51.206;6.888;2023-03-13T16:41:23;15.50;99.90
5246;DHT22;54412;51.206;6.888;2023-03-13T16:43:50;15.40;99.90
5246;DHT22;54412;51.206;6.888;2023-03-13T16:46:20;15.40;99.90
5246;DHT22;54412;51.206;6.888;2023-03-13T16:48:48;15.40;99.90
5246;DHT22;54412;51.206;6.888;2023-03-13T16:51:17;15.40;99.90
5246;DHT22;54412;51.206;6.888;2023-03-13T16:53:46;15.40;99.90
5246;DHT22;54412;51.206;6.888;2023-03-13T16:56:40;15.30;99.90
5246;DHT22;54412;51.206;6.888;2023-03-13T16:59:12;15.30;99.90
5246;DHT22;54412;51.206;6.888;2023-03-13T17:01:41;15.30;99.90
5246;DHT22;54412;51.206;6.888;2023-03-13T17:04:07;15.20;99.90
5246;DHT22;54412;51.206;6.888;2023-03-13T17:06:37;15.20;99.90
5246;DHT22;54412;51.206;6.888;2023-03-13T17:09:19;15.20;99.90
5246;DHT22;54412;51.206;6.888;2023-03-13T17:11:44;15.20;99.90
5246;DHT22;54412;51.206;6.888;2023-03-13T17:14:10;15.20;99.90
5246;DHT22;54412;51.206;6.888;2023-03-13T17:16:42;15.20;99.90
5246;DHT22;54412;51.206;6.888;2023-03-13T17:19:12;15.10;99.90
5246;DHT22;54412;51.206;6.888;2023-03-13T17:21:39;15.20;99.90
5246;DHT22;54412;51.206;6.888;2023-03-13T17:24:05;15.20;99.90
5246;DHT22;54412;51.206;6.888;2023-03-13T17:26:34;15.20;99.90
5246;DHT22;54412;51.206;6.888;2023-03-13T17:29:01;15.20;99.90
5246;DHT22;54412;51.206;6.888;2023-03-13T17:31:29;15.20;99.90
5246;DHT22;54412;51.206;6.888;2023-03-13T17:33:55;15.20;99.90
5246;DHT22;54412;51.206;6.888;2023-03-13T17:36:27;15.20;99.90
5246;DHT22;54412;51.206;6.888;2023-03-13T17:39:04;15.10;99.90
5246;DHT22;54412;51.206;6.888;2023-03-13T17:41:34;15.10;99.90
5246;DHT22;54412;51.206;6.888;2023-03-13T17:44:00;15.10;99.90
5246;DHT22;54412;51.206;6.888;2023-03-13T17:49:01;15.00;99.90
5246;DHT22;54412;51.206;6.888;2023-03-13T17:51:30;15.00;99.90
5246;DHT22;54412;51.206;6.888;2023-03-13T17:53:57;15.00;99.90
5246;DHT22;54412;51.206;6.888;2023-03-13T17:56:29;14.90;99.90
5246;DHT22;54412;51.206;6.888;2023-03-13T17:58:59;15.00;99.90
5246;DHT22;54412;51.206;6.888;2023-03-13T18:01:28;15.00;99.90
5246;DHT22;54412;51.206;6.888;2023-03-13T18:03:55;14.90;99.90
5246;DHT22;54412;51.206;6.888;2023-03-13T18:06:27;14.90;99.90
5246;DHT22;54412;51.206;6.888;2023-03-13T18:08:56;14.90;99.90
5246;DHT22;54412;51.206;6.888;2023-03-13T18:11:26;14.90;99.90
5246;DHT22;54412;51.206;6.888;2023-03-13T18:13:52;14.80;99.90